createdAt,value
2019-02-16T00:01:57.861Z,4.60
2019-02-16T00:04:48.185Z,3.83
2019-02-16T00:07:31.302Z,6.03
2019-02-16T00:10:14.136Z,3.83
2019-02-16T00:13:16.996Z,4.13
2019-02-16T00:16:00.072Z,5.07
2019-02-16T00:18:50.412Z,4.30
2019-02-16T00:21:33.293Z,4.37
2019-02-16T00:24:23.675Z,4.33
2019-02-16T00:27:07.097Z,4.50
2019-02-16T00:29:57.464Z,5.00
2019-02-16T00:32:40.689Z,6.10
2019-02-16T00:35:31.079Z,4.67
2019-02-16T00:38:14.298Z,4.07
2019-02-16T00:41:04.645Z,5.33
2019-02-16T00:43:48.104Z,4.83
2019-02-16T00:49:41.353Z,5.57
2019-02-16T00:52:31.717Z,4.37
2019-02-16T00:55:14.896Z,5.70
2019-02-16T00:58:05.239Z,3.90
2019-02-16T01:00:48.106Z,5.47
2019-02-16T01:03:38.420Z,4.03
2019-02-16T01:06:21.697Z,4.67
2019-02-16T01:09:12.053Z,4.47
2019-02-16T01:11:55.317Z,4.87
2019-02-16T01:14:45.668Z,4.97
2019-02-16T01:17:28.759Z,3.93
2019-02-16T01:20:19.118Z,4.80
2019-02-16T01:23:02.282Z,6.40
2019-02-16T01:25:52.660Z,7.53
2019-02-16T01:28:35.584Z,5.50
2019-02-16T01:31:26.013Z,5.30
2019-02-16T01:34:09.246Z,6.23
2019-02-16T01:36:59.664Z,4.63
2019-02-16T01:39:42.778Z,5.80
2019-02-16T01:42:33.176Z,5.87
2019-02-16T01:45:16.268Z,5.93
2019-02-16T01:48:06.643Z,5.20
2019-02-16T01:50:49.301Z,5.87
2019-02-16T01:53:39.748Z,7.23
2019-02-16T01:56:22.718Z,5.37
2019-02-16T01:59:13.185Z,4.90
2019-02-16T02:01:56.168Z,5.03
2019-02-16T02:04:46.595Z,4.83
2019-02-16T02:07:29.684Z,4.80
2019-02-16T02:10:20.067Z,5.00
2019-02-16T02:13:03.098Z,8.33
2019-02-16T02:15:53.482Z,6.70
2019-02-16T02:18:36.972Z,5.17
2019-02-16T02:21:27.412Z,4.77
2019-02-16T02:24:30.032Z,4.63
2019-02-16T02:27:20.293Z,4.00
2019-02-16T02:30:03.573Z,5.23
2019-02-16T02:32:54.869Z,6.07
2019-02-16T02:35:58.094Z,5.23
2019-02-16T02:38:48.475Z,6.83
2019-02-16T02:41:31.051Z,5.57
2019-02-16T02:44:21.460Z,5.50
2019-02-16T02:47:04.805Z,5.20
2019-02-16T02:49:55.205Z,5.83
2019-02-16T02:52:38.332Z,3.83
2019-02-16T02:55:28.744Z,5.10
2019-02-16T02:58:12.055Z,5.10
2019-02-16T03:00:55.205Z,4.43
2019-02-16T03:03:45.565Z,5.23
2019-02-16T03:06:28.597Z,4.63
2019-02-16T03:09:19.014Z,4.27
2019-02-16T03:12:02.594Z,5.13
2019-02-16T03:14:45.341Z,4.57
2019-02-16T03:17:35.738Z,5.30
2019-02-16T03:20:18.693Z,5.97
2019-02-16T03:23:28.510Z,5.43
2019-02-16T03:26:33.939Z,6.03
2019-02-16T03:29:45.577Z,6.23
2019-02-16T03:33:14.065Z,4.90
2019-02-16T03:36:15.761Z,4.40
2019-02-16T03:39:27.255Z,5.10
2019-02-16T03:42:10.701Z,6.63
2019-02-16T03:45:01.136Z,4.73
2019-02-16T03:47:44.441Z,4.37
2019-02-16T03:50:34.880Z,5.70
2019-02-16T03:53:17.534Z,5.97
2019-02-16T03:56:07.979Z,6.30
2019-02-16T03:58:51.331Z,4.13
2019-02-16T04:01:41.732Z,5.63
2019-02-16T04:04:25.176Z,6.80
2019-02-16T04:07:15.526Z,4.37
2019-02-16T04:10:06.138Z,5.10
2019-02-16T04:12:49.527Z,4.97
2019-02-16T04:15:40.018Z,5.63
2019-02-16T04:18:22.794Z,5.03
2019-02-16T04:21:13.150Z,6.03
2019-02-16T04:23:56.140Z,5.40
2019-02-16T04:26:46.579Z,4.80
2019-02-16T04:29:29.312Z,4.67
2019-02-16T04:32:19.701Z,5.03
2019-02-16T04:35:02.740Z,5.83
2019-02-16T04:37:53.156Z,5.67
2019-02-16T04:40:35.784Z,4.83
2019-02-16T04:43:26.150Z,6.73
2019-02-16T04:46:08.764Z,5.57
2019-02-16T04:48:59.140Z,4.23
2019-02-16T04:51:41.675Z,4.43
2019-02-16T04:54:32.045Z,5.33
2019-02-16T04:57:15.552Z,5.83
2019-02-16T05:00:06.061Z,4.77
2019-02-16T05:02:48.653Z,6.27
2019-02-16T05:05:39.602Z,4.40
2019-02-16T05:08:22.974Z,4.00
2019-02-16T05:11:13.963Z,4.83
2019-02-16T05:13:56.569Z,4.97
2019-02-16T05:16:47.194Z,5.00
2019-02-16T05:19:51.580Z,4.33
2019-02-16T05:22:44.759Z,6.03
2019-02-16T05:25:46.212Z,5.27
2019-02-16T05:28:36.520Z,4.90
2019-02-16T05:31:19.650Z,5.63
2019-02-16T05:34:09.962Z,5.10
2019-02-16T05:36:53.035Z,5.97
2019-02-16T05:39:43.357Z,4.10
2019-02-16T05:42:26.725Z,4.70
2019-02-16T05:45:17.168Z,4.33
2019-02-16T05:48:00.419Z,4.20
2019-02-16T05:50:50.779Z,6.60
2019-02-16T05:53:33.626Z,4.40
2019-02-16T05:56:23.993Z,4.87
2019-02-16T05:59:08.170Z,4.13
2019-02-16T06:01:58.714Z,6.53
2019-02-16T06:04:41.843Z,5.70
2019-02-16T06:07:32.188Z,5.70
2019-02-16T06:10:15.040Z,5.63
2019-02-16T06:13:05.568Z,6.67
2019-02-16T06:16:08.936Z,7.20
2019-02-16T06:18:59.255Z,7.53
2019-02-16T06:22:01.710Z,6.90
2019-02-16T06:24:52.101Z,5.80
2019-02-16T06:27:35.361Z,4.93
2019-02-16T06:30:25.733Z,5.20
2019-02-16T06:33:09.101Z,6.97
2019-02-16T06:36:18.373Z,4.63
2019-02-16T06:39:01.456Z,6.37
2019-02-16T06:41:51.791Z,5.50
2019-02-16T06:44:34.973Z,6.67
2019-02-16T06:47:25.309Z,6.67
2019-02-16T06:50:08.230Z,4.87
2019-02-16T06:52:58.598Z,7.40
2019-02-16T06:56:06.703Z,7.40
2019-02-16T06:58:57.043Z,7.03
2019-02-16T07:01:39.574Z,4.27
2019-02-16T07:04:29.938Z,5.07
2019-02-16T07:07:13.482Z,6.07
2019-02-16T07:10:03.882Z,6.00
2019-02-16T07:12:46.695Z,5.83
2019-02-16T07:15:29.548Z,5.07
2019-02-16T07:18:24.525Z,5.20
2019-02-16T07:21:07.186Z,4.87
2019-02-16T07:23:57.579Z,5.13
2019-02-16T07:26:40.561Z,8.60
2019-02-16T07:29:30.949Z,6.37
2019-02-16T07:32:14.148Z,6.97
2019-02-16T07:35:04.639Z,5.57
2019-02-16T07:37:47.729Z,5.57
2019-02-16T07:40:38.076Z,5.30
2019-02-16T07:43:39.985Z,5.50
2019-02-16T07:50:04.548Z,4.60
2019-02-16T07:53:13.822Z,6.37
2019-02-16T07:56:04.355Z,6.03
2019-02-16T07:59:13.586Z,5.00
2019-02-16T08:02:15.075Z,5.63
2019-02-16T08:05:24.457Z,4.57
2019-02-16T08:08:19.068Z,5.57
2019-02-16T08:11:16.194Z,4.57
2019-02-16T08:14:21.315Z,5.53
2019-02-16T08:17:23.454Z,8.83
2019-02-16T08:20:32.687Z,4.63
2019-02-16T08:23:40.355Z,5.13
2019-02-16T08:27:01.165Z,6.20
2019-02-16T08:30:10.372Z,6.57
2019-02-16T08:32:59.068Z,5.20
2019-02-16T08:36:08.279Z,4.67
2019-02-16T08:39:10.478Z,4.30
2019-02-16T08:45:46.935Z,5.90
2019-02-16T08:48:43.011Z,4.97
2019-02-16T08:51:52.269Z,4.57
2019-02-16T08:54:48.098Z,4.37
2019-02-16T08:57:57.322Z,4.47
2019-02-16T09:00:59.001Z,4.23
2019-02-16T09:04:08.216Z,4.97
2019-02-16T09:07:17.455Z,4.63
2019-02-16T09:10:39.527Z,6.53
2019-02-16T09:14:01.801Z,4.67
2019-02-16T09:17:11.047Z,3.93
2019-02-16T09:23:37.819Z,5.60
2019-02-16T09:26:39.686Z,4.87
2019-02-16T09:29:48.894Z,4.90
2019-02-16T09:32:46.485Z,4.13
2019-02-16T09:35:47.909Z,5.93
2019-02-16T09:38:57.133Z,4.30
2019-02-16T09:41:58.728Z,6.27
2019-02-16T09:44:55.642Z,5.77
2019-02-16T09:47:49.732Z,5.53
2019-02-16T09:50:58.974Z,6.93
2019-02-16T09:54:08.424Z,4.97
2019-02-16T09:57:26.882Z,5.40
2019-02-16T10:00:36.173Z,5.87
2019-02-16T10:03:45.441Z,4.83
2019-02-16T10:06:54.728Z,5.23
2019-02-16T10:10:03.966Z,6.07
2019-02-16T10:13:31.961Z,7.40
2019-02-16T10:16:32.078Z,7.03
2019-02-16T10:19:30.647Z,7.53
2019-02-16T10:22:40.198Z,9.47
2019-02-16T10:26:02.951Z,11.67
2019-02-16T10:29:12.214Z,8.43
2019-02-16T10:32:14.273Z,10.13
2019-02-16T10:35:23.503Z,9.87
2019-02-16T10:38:13.952Z,8.50
2019-02-16T10:41:20.851Z,9.97
2019-02-16T10:44:22.420Z,8.97
2019-02-16T10:47:27.175Z,11.87
2019-02-16T10:50:32.471Z,8.10
2019-02-16T10:53:41.683Z,9.33
2019-02-16T10:56:49.240Z,10.37
2019-02-16T10:59:58.435Z,8.60
2019-02-16T11:03:03.221Z,10.53
2019-02-16T11:06:12.417Z,10.50
2019-02-16T11:09:14.417Z,8.33
2019-02-16T11:12:23.635Z,8.60
2019-02-16T11:15:22.357Z,10.00
2019-02-16T11:18:31.590Z,9.20
2019-02-16T11:21:33.289Z,10.03
2019-02-16T11:24:42.475Z,10.77
2019-02-16T11:27:44.014Z,9.97
2019-02-16T11:30:53.185Z,9.90
2019-02-16T11:33:55.049Z,9.37
2019-02-16T11:37:04.158Z,12.30
2019-02-16T11:40:05.551Z,10.37
2019-02-16T11:43:14.774Z,10.70
2019-02-16T11:46:02.570Z,10.77
2019-02-16T11:49:11.768Z,10.17
2019-02-16T11:52:04.571Z,11.03
2019-02-16T11:55:33.706Z,10.40
2019-02-16T11:58:30.423Z,13.87
2019-02-16T12:01:40.846Z,10.57
2019-02-16T12:04:51.703Z,11.43
2019-02-16T12:08:00.941Z,11.97
2019-02-16T12:11:10.168Z,12.53
2019-02-16T12:14:08.963Z,11.80
2019-02-16T12:17:04.466Z,12.53
2019-02-16T12:20:09.274Z,11.33
2019-02-16T12:23:18.514Z,10.93
2019-02-16T12:26:16.093Z,11.60
2019-02-16T12:29:25.362Z,10.63
2019-02-16T12:32:47.346Z,12.07
2019-02-16T12:35:45.051Z,11.30
2019-02-16T12:38:41.476Z,11.40
2019-02-16T12:41:46.519Z,11.57
2019-02-16T12:44:55.755Z,11.83
2019-02-16T12:47:57.647Z,10.53
2019-02-16T12:50:59.644Z,11.90
2019-02-16T12:54:08.895Z,12.17
2019-02-16T12:57:10.604Z,9.57
2019-02-16T13:00:19.861Z,11.27
2019-02-16T13:03:22.044Z,10.87
2019-02-16T13:06:19.280Z,9.57
2019-02-16T13:09:11.175Z,10.80
2019-02-16T13:12:13.145Z,11.67
2019-02-16T13:15:22.442Z,9.33
2019-02-16T13:18:18.557Z,10.57
2019-02-16T13:21:15.848Z,11.90
2019-02-16T13:24:18.218Z,11.50
2019-02-16T13:27:28.490Z,10.30
2019-02-16T13:30:37.680Z,11.50
2019-02-16T13:33:46.889Z,9.37
2019-02-16T13:36:56.129Z,12.60
2019-02-16T13:40:05.367Z,9.60
2019-02-16T13:43:09.950Z,10.80
2019-02-16T13:46:19.198Z,11.87
2019-02-16T13:49:24.691Z,11.07
2019-02-16T13:52:33.958Z,11.17
2019-02-16T13:55:36.258Z,10.10
2019-02-16T13:58:45.589Z,10.37
2019-02-16T14:01:50.290Z,12.47
2019-02-16T14:04:47.388Z,14.57
2019-02-16T14:07:49.534Z,13.13
2019-02-16T14:10:46.823Z,12.60
2019-02-16T14:13:48.273Z,11.37
2019-02-16T14:16:57.538Z,12.33
2019-02-16T14:19:40.454Z,12.60
2019-02-16T14:22:30.860Z,12.23
2019-02-16T14:25:42.340Z,12.27
2019-02-16T14:28:37.477Z,12.53
2019-02-16T14:31:28.692Z,13.43
2019-02-16T14:34:32.684Z,13.30
2019-02-16T14:37:41.990Z,14.57
2019-02-16T14:40:28.815Z,12.00
2019-02-16T14:43:19.185Z,13.20
2019-02-16T14:46:02.388Z,12.80
2019-02-16T14:48:52.778Z,13.27
2019-02-16T14:51:36.239Z,13.07
2019-02-16T14:54:26.570Z,11.60
2019-02-16T14:57:09.665Z,13.30
2019-02-16T15:00:00.020Z,14.80
2019-02-16T15:02:42.639Z,13.53
2019-02-16T15:05:25.645Z,13.83
2019-02-16T15:08:16.034Z,15.23
2019-02-16T15:10:58.740Z,12.70
2019-02-16T15:13:49.094Z,16.87
2019-02-16T15:16:32.302Z,13.77
2019-02-16T15:19:22.652Z,14.07
2019-02-16T15:22:05.189Z,17.53
2019-02-16T15:24:55.589Z,14.27
2019-02-16T15:27:38.374Z,15.20
2019-02-16T15:30:28.737Z,17.37
2019-02-16T15:33:31.900Z,19.00
2019-02-16T15:36:24.192Z,15.40
2019-02-16T15:39:26.818Z,17.07
2019-02-16T15:42:17.187Z,17.33
2019-02-16T15:44:59.912Z,15.33
2019-02-16T15:47:50.251Z,16.33
2019-02-16T15:50:33.053Z,17.90
2019-02-16T15:53:23.408Z,17.43
2019-02-16T15:56:10.501Z,15.60
2019-02-16T15:58:58.400Z,17.03
2019-02-16T16:01:41.426Z,19.03
2019-02-16T16:04:31.764Z,15.27
2019-02-16T16:07:35.159Z,17.83
2019-02-16T16:10:38.917Z,16.37
2019-02-16T16:13:40.516Z,18.07
2019-02-16T16:16:49.750Z,17.00
2019-02-16T16:19:45.106Z,17.73
2019-02-16T16:22:54.344Z,14.50
2019-02-16T16:25:56.671Z,18.00
2019-02-16T16:29:05.909Z,15.57
2019-02-16T16:32:01.678Z,15.97
2019-02-16T16:35:10.968Z,21.03
2019-02-16T16:38:13.059Z,18.47
2019-02-16T16:41:22.303Z,17.20
2019-02-16T16:44:27.232Z,17.73
2019-02-16T16:47:36.471Z,20.20
2019-02-16T16:50:41.255Z,19.77
2019-02-16T16:53:50.473Z,17.93
2019-02-16T16:56:52.638Z,18.90
2019-02-16T17:00:01.919Z,18.10
2019-02-16T17:03:03.695Z,18.37
2019-02-16T17:05:56.837Z,16.33
2019-02-16T17:09:06.022Z,16.93
2019-02-16T17:12:07.807Z,18.53
2019-02-16T17:15:17.065Z,17.00
2019-02-16T17:18:18.653Z,20.73
2019-02-16T17:21:27.868Z,17.47
2019-02-16T17:24:20.957Z,18.90
2019-02-16T17:27:30.178Z,14.73
2019-02-16T17:30:35.052Z,14.43
2019-02-16T17:33:34.248Z,16.03
2019-02-16T17:36:36.177Z,16.30
2019-02-16T17:39:45.420Z,18.47
2019-02-16T17:42:48.625Z,19.17
2019-02-16T17:45:50.896Z,16.97
2019-02-16T17:49:00.125Z,18.27
2019-02-16T17:52:02.064Z,17.40
2019-02-16T17:55:11.307Z,15.20
2019-02-16T17:58:07.379Z,19.20
2019-02-16T18:01:03.208Z,17.40
2019-02-16T18:04:12.406Z,20.67
2019-02-16T18:07:17.899Z,19.30
2019-02-16T18:10:27.233Z,17.40
2019-02-16T18:13:28.942Z,17.27
2019-02-16T18:16:44.661Z,18.00
2019-02-16T18:19:37.435Z,18.33
2019-02-16T18:22:46.633Z,19.50
2019-02-16T18:25:55.896Z,19.47
2019-02-16T18:29:05.131Z,19.67
2019-02-16T18:32:01.463Z,21.53
2019-02-16T18:35:10.693Z,17.73
2019-02-16T18:38:19.154Z,17.83
2019-02-16T18:41:28.359Z,17.67
2019-02-16T18:44:37.581Z,19.53
2019-02-16T18:47:46.880Z,17.10
2019-02-16T18:50:47.684Z,19.37
2019-02-16T18:53:56.961Z,18.20
2019-02-16T18:57:06.369Z,17.73
2019-02-16T19:00:02.987Z,20.70
2019-02-16T19:03:03.441Z,17.80
2019-02-16T19:06:05.470Z,18.20
2019-02-16T19:09:02.346Z,18.60
2019-02-16T19:11:57.489Z,18.40
2019-02-16T19:15:06.891Z,18.60
2019-02-16T19:17:56.727Z,20.00
2019-02-16T19:21:05.942Z,17.80
2019-02-16T19:24:07.656Z,22.07
2019-02-16T19:27:17.162Z,20.40
2019-02-16T19:30:19.331Z,18.60
2019-02-16T19:33:47.562Z,17.73
2019-02-16T19:36:52.354Z,20.60
2019-02-16T19:40:01.561Z,18.50
2019-02-16T19:43:03.925Z,20.70
2019-02-16T19:46:33.134Z,18.13
2019-02-16T19:49:28.516Z,18.93
2019-02-16T19:52:37.743Z,18.23
2019-02-16T19:55:39.864Z,18.53
2019-02-16T19:58:42.145Z,18.77
2019-02-16T20:01:51.444Z,19.57
2019-02-16T20:05:12.753Z,17.97
2019-02-16T20:08:02.923Z,18.43
2019-02-16T20:11:05.141Z,18.67
2019-02-16T20:14:14.372Z,17.20
2019-02-16T20:17:15.958Z,15.67
2019-02-16T20:20:26.145Z,17.10
2019-02-16T20:23:28.377Z,19.13
2019-02-16T20:26:38.012Z,16.93
2019-02-16T20:29:48.236Z,22.40
2019-02-16T20:32:58.074Z,22.83
2019-02-16T20:39:21.642Z,19.87
2019-02-16T20:42:45.799Z,22.03
2019-02-16T20:45:54.994Z,17.03
2019-02-16T20:48:58.704Z,20.27
2019-02-16T20:52:08.165Z,19.83
2019-02-16T20:55:05.339Z,18.40
2019-02-16T20:58:13.858Z,21.43
2019-02-16T21:01:11.747Z,19.37
2019-02-16T21:04:13.260Z,19.60
2019-02-16T21:07:22.517Z,20.07
2019-02-16T21:10:27.947Z,19.03
2019-02-16T21:13:37.905Z,20.27
2019-02-16T21:16:37.782Z,22.77
2019-02-16T21:19:49.142Z,20.67
2019-02-16T21:23:09.978Z,19.93
2019-02-16T21:26:19.254Z,19.03
2019-02-16T21:29:21.330Z,19.90
2019-02-16T21:32:30.667Z,17.70
2019-02-16T21:35:33.108Z,17.30
2019-02-16T21:39:02.919Z,20.13
2019-02-16T21:42:05.594Z,18.00
2019-02-16T21:48:37.104Z,21.33
2019-02-16T21:51:46.329Z,20.87
2019-02-16T21:54:46.473Z,20.47
2019-02-16T21:57:55.694Z,18.20
2019-02-16T22:00:57.484Z,20.50
2019-02-16T22:04:06.703Z,21.00
2019-02-16T22:07:08.257Z,20.00
2019-02-16T22:10:17.494Z,17.97
2019-02-16T22:13:19.384Z,18.90
2019-02-16T22:16:09.746Z,21.87
2019-02-16T22:18:52.369Z,17.60
2019-02-16T22:21:35.050Z,19.77
2019-02-16T22:24:25.457Z,18.57
2019-02-16T22:27:08.038Z,18.20
2019-02-16T22:29:58.418Z,20.30
2019-02-16T22:32:41.073Z,17.80
2019-02-16T22:35:31.484Z,16.33
2019-02-16T22:38:14.986Z,17.70
2019-02-16T22:41:05.397Z,16.50
2019-02-16T22:43:48.857Z,18.03
2019-02-16T22:46:39.245Z,18.43
2019-02-16T22:49:22.426Z,18.13
2019-02-16T22:52:12.830Z,18.43
2019-02-16T22:54:56.276Z,19.00
2019-02-16T22:57:46.594Z,17.57
2019-02-16T23:00:48.771Z,18.40
2019-02-16T23:03:39.143Z,21.90
2019-02-16T23:06:22.677Z,18.07
2019-02-16T23:12:46.763Z,18.77
2019-02-16T23:15:37.087Z,18.23
2019-02-16T23:18:20.447Z,17.20
2019-02-16T23:21:03.110Z,17.60
2019-02-16T23:23:53.455Z,16.97
2019-02-16T23:26:36.781Z,16.17
2019-02-16T23:29:27.198Z,16.23
2019-02-16T23:32:17.619Z,17.40
2019-02-16T23:35:08.168Z,17.37
2019-02-16T23:37:51.122Z,16.37
2019-02-16T23:40:41.541Z,19.77
2019-02-16T23:43:44.352Z,16.57
2019-02-16T23:46:34.730Z,17.93
2019-02-16T23:49:37.615Z,19.50
2019-02-16T23:52:28.022Z,19.90
2019-02-16T23:55:31.033Z,20.50
2019-02-16T23:58:21.424Z,17.07
